sensor_id;sensor_type;location;lat;lon;timestamp;P1;durP1;ratioP1;P2;durP2;ratioP2
15706;SDS011;7953;54.302;10.128;2024-01-16T00:00:39;8.10;;;5.00;;
15706;SDS011;7953;54.302;10.128;2024-01-16T00:03:07;5.23;;;4.07;;
15706;SDS011;7953;54.302;10.128;2024-01-16T00:05:34;7.43;;;4.33;;
15706;SDS011;7953;54.302;10.128;2024-01-16T00:08:01;5.63;;;4.27;;
15706;SDS011;7953;54.302;10.128;2024-01-16T00:10:28;6.57;;;3.77;;
15706;SDS011;7953;54.302;10.128;2024-01-16T00:12:54;8.43;;;4.90;;
15706;SDS011;7953;54.302;10.128;2024-01-16T00:15:21;9.20;;;4.47;;
15706;SDS011;7953;54.302;10.128;2024-01-16T00:17:48;7.53;;;4.30;;
15706;SDS011;7953;54.302;10.128;2024-01-16T00:20:17;9.20;;;5.30;;
15706;SDS011;7953;54.302;10.128;2024-01-16T00:22:44;5.30;;;3.80;;
15706;SDS011;7953;54.302;10.128;2024-01-16T00:25:11;5.80;;;3.90;;
15706;SDS011;7953;54.302;10.128;2024-01-16T00:27:38;4.80;;;3.60;;
15706;SDS011;7953;54.302;10.128;2024-01-16T00:30:06;5.43;;;4.07;;
15706;SDS011;7953;54.302;10.128;2024-01-16T00:32:34;5.70;;;4.87;;
15706;SDS011;7953;54.302;10.128;2024-01-16T00:35:00;8.67;;;4.50;;
15706;SDS011;7953;54.302;10.128;2024-01-16T00:37:29;10.07;;;5.60;;
15706;SDS011;7953;54.302;10.128;2024-01-16T00:39:56;10.97;;;5.50;;
15706;SDS011;7953;54.302;10.128;2024-01-16T00:42:23;7.17;;;4.50;;
15706;SDS011;7953;54.302;10.128;2024-01-16T00:44:49;8.50;;;5.90;;
15706;SDS011;7953;54.302;10.128;2024-01-16T00:47:16;9.80;;;5.10;;
15706;SDS011;7953;54.302;10.128;2024-01-16T00:49:43;9.07;;;4.80;;
15706;SDS011;7953;54.302;10.128;2024-01-16T00:52:10;8.90;;;5.20;;
15706;SDS011;7953;54.302;10.128;2024-01-16T00:54:38;9.67;;;5.60;;
15706;SDS011;7953;54.302;10.128;2024-01-16T00:57:06;8.23;;;5.20;;
15706;SDS011;7953;54.302;10.128;2024-01-16T00:59:33;10.77;;;5.77;;
15706;SDS011;7953;54.302;10.128;2024-01-16T01:02:00;11.23;;;5.20;;
15706;SDS011;7953;54.302;10.128;2024-01-16T01:04:28;9.17;;;5.13;;
15706;SDS011;7953;54.302;10.128;2024-01-16T01:06:55;8.30;;;5.83;;
15706;SDS011;7953;54.302;10.128;2024-01-16T01:09:22;8.40;;;5.80;;
15706;SDS011;7953;54.302;10.128;2024-01-16T01:11:50;8.77;;;6.13;;
15706;SDS011;7953;54.302;10.128;2024-01-16T01:14:17;12.00;;;6.03;;
15706;SDS011;7953;54.302;10.128;2024-01-16T01:16:44;8.00;;;5.90;;
15706;SDS011;7953;54.302;10.128;2024-01-16T01:19:10;7.90;;;5.50;;
15706;SDS011;7953;54.302;10.128;2024-01-16T01:21:37;9.17;;;6.17;;
15706;SDS011;7953;54.302;10.128;2024-01-16T01:24:04;10.27;;;6.30;;
15706;SDS011;7953;54.302;10.128;2024-01-16T01:26:31;9.33;;;6.33;;
15706;SDS011;7953;54.302;10.128;2024-01-16T01:28:59;9.83;;;6.23;;
15706;SDS011;7953;54.302;10.128;2024-01-16T01:31:26;10.23;;;5.57;;
15706;SDS011;7953;54.302;10.128;2024-01-16T01:33:53;8.83;;;5.70;;
15706;SDS011;7953;54.302;10.128;2024-01-16T01:36:20;10.27;;;6.33;;
15706;SDS011;7953;54.302;10.128;2024-01-16T01:38:46;9.83;;;6.53;;
15706;SDS011;7953;54.302;10.128;2024-01-16T01:41:13;8.83;;;6.33;;
15706;SDS011;7953;54.302;10.128;2024-01-16T01:43:40;9.97;;;7.23;;
15706;SDS011;7953;54.302;10.128;2024-01-16T01:46:11;8.13;;;6.43;;
15706;SDS011;7953;54.302;10.128;2024-01-16T01:48:42;10.53;;;6.23;;
15706;SDS011;7953;54.302;10.128;2024-01-16T01:51:09;11.77;;;6.80;;
15706;SDS011;7953;54.302;10.128;2024-01-16T01:53:38;10.20;;;6.10;;
15706;SDS011;7953;54.302;10.128;2024-01-16T01:56:07;9.30;;;5.63;;
15706;SDS011;7953;54.302;10.128;2024-01-16T01:58:36;9.33;;;6.17;;
15706;SDS011;7953;54.302;10.128;2024-01-16T02:01:04;8.07;;;6.13;;
15706;SDS011;7953;54.302;10.128;2024-01-16T02:03:35;15.07;;;6.13;;
15706;SDS011;7953;54.302;10.128;2024-01-16T02:06:06;9.77;;;5.93;;
15706;SDS011;7953;54.302;10.128;2024-01-16T02:08:33;7.80;;;6.20;;
15706;SDS011;7953;54.302;10.128;2024-01-16T02:11:00;9.17;;;5.73;;
15706;SDS011;7953;54.302;10.128;2024-01-16T02:13:27;8.10;;;6.03;;
15706;SDS011;7953;54.302;10.128;2024-01-16T02:15:54;10.73;;;6.87;;
15706;SDS011;7953;54.302;10.128;2024-01-16T02:18:21;12.57;;;8.13;;
15706;SDS011;7953;54.302;10.128;2024-01-16T02:20:49;11.27;;;6.27;;
15706;SDS011;7953;54.302;10.128;2024-01-16T02:23:21;11.30;;;7.37;;
15706;SDS011;7953;54.302;10.128;2024-01-16T02:25:52;13.77;;;7.03;;
15706;SDS011;7953;54.302;10.128;2024-01-16T02:28:19;9.27;;;6.93;;
15706;SDS011;7953;54.302;10.128;2024-01-16T02:30:46;10.03;;;7.13;;
15706;SDS011;7953;54.302;10.128;2024-01-16T02:33:13;9.37;;;7.50;;
15706;SDS011;7953;54.302;10.128;2024-01-16T02:35:40;12.07;;;7.93;;
15706;SDS011;7953;54.302;10.128;2024-01-16T02:38:07;10.87;;;7.70;;
15706;SDS011;7953;54.302;10.128;2024-01-16T02:40:35;11.70;;;7.60;;
15706;SDS011;7953;54.302;10.128;2024-01-16T02:43:02;12.37;;;7.80;;
15706;SDS011;7953;54.302;10.128;2024-01-16T02:45:29;11.70;;;7.70;;
15706;SDS011;7953;54.302;10.128;2024-01-16T02:47:55;13.80;;;7.90;;
15706;SDS011;7953;54.302;10.128;2024-01-16T02:50:22;11.03;;;7.47;;
15706;SDS011;7953;54.302;10.128;2024-01-16T02:52:49;13.93;;;8.83;;
15706;SDS011;7953;54.302;10.128;2024-01-16T02:55:16;9.80;;;6.70;;
15706;SDS011;7953;54.302;10.128;2024-01-16T02:57:44;11.30;;;7.90;;
15706;SDS011;7953;54.302;10.128;2024-01-16T03:00:11;10.53;;;8.03;;
15706;SDS011;7953;54.302;10.128;2024-01-16T03:02:39;15.63;;;7.50;;
15706;SDS011;7953;54.302;10.128;2024-01-16T03:05:07;13.20;;;8.20;;
15706;SDS011;7953;54.302;10.128;2024-01-16T03:07:34;12.87;;;7.73;;
15706;SDS011;7953;54.302;10.128;2024-01-16T03:10:01;11.37;;;7.80;;
15706;SDS011;7953;54.302;10.128;2024-01-16T03:12:28;10.90;;;7.60;;
15706;SDS011;7953;54.302;10.128;2024-01-16T03:14:56;13.17;;;8.10;;
15706;SDS011;7953;54.302;10.128;2024-01-16T03:17:23;13.47;;;7.43;;
15706;SDS011;7953;54.302;10.128;2024-01-16T03:19:50;15.57;;;9.27;;
15706;SDS011;7953;54.302;10.128;2024-01-16T03:22:17;10.47;;;7.73;;
15706;SDS011;7953;54.302;10.128;2024-01-16T03:24:44;12.73;;;8.30;;
15706;SDS011;7953;54.302;10.128;2024-01-16T03:27:11;15.93;;;8.30;;
15706;SDS011;7953;54.302;10.128;2024-01-16T03:29:38;11.00;;;7.63;;
15706;SDS011;7953;54.302;10.128;2024-01-16T03:32:06;12.33;;;7.63;;
15706;SDS011;7953;54.302;10.128;2024-01-16T03:34:33;11.87;;;7.10;;
15706;SDS011;7953;54.302;10.128;2024-01-16T03:37:00;12.67;;;7.77;;
15706;SDS011;7953;54.302;10.128;2024-01-16T03:39:27;10.83;;;7.67;;
15706;SDS011;7953;54.302;10.128;2024-01-16T03:41:54;13.30;;;8.27;;
15706;SDS011;7953;54.302;10.128;2024-01-16T03:44:20;14.20;;;8.67;;
15706;SDS011;7953;54.302;10.128;2024-01-16T03:46:47;11.43;;;7.23;;
15706;SDS011;7953;54.302;10.128;2024-01-16T03:49:15;11.93;;;7.27;;
15706;SDS011;7953;54.302;10.128;2024-01-16T03:51:42;13.03;;;8.53;;
15706;SDS011;7953;54.302;10.128;2024-01-16T03:54:11;11.97;;;7.70;;
15706;SDS011;7953;54.302;10.128;2024-01-16T03:56:38;11.47;;;7.13;;
15706;SDS011;7953;54.302;10.128;2024-01-16T03:59:05;15.23;;;7.83;;
15706;SDS011;7953;54.302;10.128;2024-01-16T04:01:32;11.97;;;7.90;;
15706;SDS011;7953;54.302;10.128;2024-01-16T04:04:02;10.07;;;7.20;;
15706;SDS011;7953;54.302;10.128;2024-01-16T04:06:32;15.03;;;8.20;;
15706;SDS011;7953;54.302;10.128;2024-01-16T04:08:59;11.30;;;7.50;;
15706;SDS011;7953;54.302;10.128;2024-01-16T04:11:26;13.33;;;7.80;;
15706;SDS011;7953;54.302;10.128;2024-01-16T04:13:53;12.27;;;7.47;;
15706;SDS011;7953;54.302;10.128;2024-01-16T04:16:20;11.23;;;7.40;;
15706;SDS011;7953;54.302;10.128;2024-01-16T04:18:47;10.50;;;7.07;;
15706;SDS011;7953;54.302;10.128;2024-01-16T04:21:14;14.37;;;7.70;;
15706;SDS011;7953;54.302;10.128;2024-01-16T04:23:42;10.10;;;7.27;;
15706;SDS011;7953;54.302;10.128;2024-01-16T04:26:09;11.17;;;7.70;;
15706;SDS011;7953;54.302;10.128;2024-01-16T04:28:36;12.70;;;7.63;;
15706;SDS011;7953;54.302;10.128;2024-01-16T04:31:03;9.63;;;6.43;;
15706;SDS011;7953;54.302;10.128;2024-01-16T04:33:30;9.47;;;6.63;;
15706;SDS011;7953;54.302;10.128;2024-01-16T04:35:58;16.77;;;7.53;;
15706;SDS011;7953;54.302;10.128;2024-01-16T04:38:24;12.47;;;8.37;;
15706;SDS011;7953;54.302;10.128;2024-01-16T04:40:53;13.73;;;8.03;;
15706;SDS011;7953;54.302;10.128;2024-01-16T04:43:20;11.77;;;7.80;;
15706;SDS011;7953;54.302;10.128;2024-01-16T04:45:47;14.43;;;8.47;;
15706;SDS011;7953;54.302;10.128;2024-01-16T04:48:14;12.40;;;8.83;;
15706;SDS011;7953;54.302;10.128;2024-01-16T04:50:42;11.73;;;8.27;;
15706;SDS011;7953;54.302;10.128;2024-01-16T04:53:10;14.80;;;8.47;;
15706;SDS011;7953;54.302;10.128;2024-01-16T04:55:37;11.77;;;8.03;;
15706;SDS011;7953;54.302;10.128;2024-01-16T04:58:05;11.27;;;8.13;;
15706;SDS011;7953;54.302;10.128;2024-01-16T05:00:32;14.07;;;7.83;;
15706;SDS011;7953;54.302;10.128;2024-01-16T05:02:59;14.53;;;8.43;;
15706;SDS011;7953;54.302;10.128;2024-01-16T05:05:29;15.60;;;8.83;;
15706;SDS011;7953;54.302;10.128;2024-01-16T05:07:56;14.33;;;9.20;;
15706;SDS011;7953;54.302;10.128;2024-01-16T05:10:23;15.17;;;10.03;;
15706;SDS011;7953;54.302;10.128;2024-01-16T05:12:50;18.83;;;10.10;;
15706;SDS011;7953;54.302;10.128;2024-01-16T05:15:18;17.20;;;11.10;;
15706;SDS011;7953;54.302;10.128;2024-01-16T05:17:45;18.40;;;11.13;;
15706;SDS011;7953;54.302;10.128;2024-01-16T05:20:12;19.33;;;11.73;;
15706;SDS011;7953;54.302;10.128;2024-01-16T05:22:39;18.10;;;10.37;;
15706;SDS011;7953;54.302;10.128;2024-01-16T05:25:06;27.63;;;11.87;;
15706;SDS011;7953;54.302;10.128;2024-01-16T05:27:33;24.13;;;12.40;;
15706;SDS011;7953;54.302;10.128;2024-01-16T05:30:00;18.43;;;11.43;;
15706;SDS011;7953;54.302;10.128;2024-01-16T05:32:28;23.20;;;14.37;;
15706;SDS011;7953;54.302;10.128;2024-01-16T05:34:55;18.67;;;11.03;;
15706;SDS011;7953;54.302;10.128;2024-01-16T05:37:22;18.57;;;12.00;;
15706;SDS011;7953;54.302;10.128;2024-01-16T05:39:49;20.40;;;11.80;;
15706;SDS011;7953;54.302;10.128;2024-01-16T05:42:16;21.60;;;11.40;;
15706;SDS011;7953;54.302;10.128;2024-01-16T05:44:42;22.33;;;12.27;;
15706;SDS011;7953;54.302;10.128;2024-01-16T05:47:09;20.83;;;11.27;;
15706;SDS011;7953;54.302;10.128;2024-01-16T05:49:38;21.03;;;11.60;;
15706;SDS011;7953;54.302;10.128;2024-01-16T05:52:06;23.77;;;12.27;;
15706;SDS011;7953;54.302;10.128;2024-01-16T05:54:33;23.00;;;11.93;;
15706;SDS011;7953;54.302;10.128;2024-01-16T05:57:00;19.97;;;12.07;;
15706;SDS011;7953;54.302;10.128;2024-01-16T05:59:27;19.80;;;12.00;;
15706;SDS011;7953;54.302;10.128;2024-01-16T06:01:54;19.37;;;12.13;;
15706;SDS011;7953;54.302;10.128;2024-01-16T06:04:21;20.07;;;11.53;;
15706;SDS011;7953;54.302;10.128;2024-01-16T06:06:49;26.87;;;11.70;;
15706;SDS011;7953;54.302;10.128;2024-01-16T06:09:16;21.43;;;12.17;;
15706;SDS011;7953;54.302;10.128;2024-01-16T06:11:43;24.17;;;13.03;;
15706;SDS011;7953;54.302;10.128;2024-01-16T06:14:10;29.27;;;17.93;;
15706;SDS011;7953;54.302;10.128;2024-01-16T06:16:38;21.13;;;13.23;;
15706;SDS011;7953;54.302;10.128;2024-01-16T06:19:05;35.60;;;17.90;;
15706;SDS011;7953;54.302;10.128;2024-01-16T06:21:33;23.87;;;12.87;;
15706;SDS011;7953;54.302;10.128;2024-01-16T06:24:01;19.93;;;12.93;;
15706;SDS011;7953;54.302;10.128;2024-01-16T06:26:28;24.07;;;14.23;;
15706;SDS011;7953;54.302;10.128;2024-01-16T06:28:55;22.33;;;13.23;;
15706;SDS011;7953;54.302;10.128;2024-01-16T06:31:21;21.00;;;13.20;;
15706;SDS011;7953;54.302;10.128;2024-01-16T06:33:49;24.57;;;14.50;;
15706;SDS011;7953;54.302;10.128;2024-01-16T06:36:15;23.23;;;13.00;;
15706;SDS011;7953;54.302;10.128;2024-01-16T06:38:42;22.63;;;13.00;;
15706;SDS011;7953;54.302;10.128;2024-01-16T06:41:10;23.03;;;15.30;;
15706;SDS011;7953;54.302;10.128;2024-01-16T06:43:37;22.43;;;13.53;;
15706;SDS011;7953;54.302;10.128;2024-01-16T06:46:05;28.80;;;15.67;;
15706;SDS011;7953;54.302;10.128;2024-01-16T06:48:31;24.23;;;13.73;;
15706;SDS011;7953;54.302;10.128;2024-01-16T06:51:00;24.30;;;13.33;;
15706;SDS011;7953;54.302;10.128;2024-01-16T06:53:27;20.00;;;11.73;;
15706;SDS011;7953;54.302;10.128;2024-01-16T06:55:54;25.03;;;13.27;;
15706;SDS011;7953;54.302;10.128;2024-01-16T06:58:22;23.87;;;13.23;;
15706;SDS011;7953;54.302;10.128;2024-01-16T07:00:49;22.20;;;13.23;;
15706;SDS011;7953;54.302;10.128;2024-01-16T07:03:16;26.17;;;14.97;;
15706;SDS011;7953;54.302;10.128;2024-01-16T07:05:43;23.47;;;14.47;;
15706;SDS011;7953;54.302;10.128;2024-01-16T07:08:10;22.33;;;12.63;;
15706;SDS011;7953;54.302;10.128;2024-01-16T07:10:37;18.67;;;11.80;;
15706;SDS011;7953;54.302;10.128;2024-01-16T07:13:04;22.40;;;12.90;;
15706;SDS011;7953;54.302;10.128;2024-01-16T07:15:33;21.03;;;12.77;;
15706;SDS011;7953;54.302;10.128;2024-01-16T07:18:00;27.57;;;13.17;;
15706;SDS011;7953;54.302;10.128;2024-01-16T07:20:27;19.57;;;12.47;;
15706;SDS011;7953;54.302;10.128;2024-01-16T07:22:54;23.97;;;12.50;;
15706;SDS011;7953;54.302;10.128;2024-01-16T07:25:21;19.03;;;11.00;;
15706;SDS011;7953;54.302;10.128;2024-01-16T07:27:48;22.97;;;12.53;;
15706;SDS011;7953;54.302;10.128;2024-01-16T07:30:14;18.40;;;12.43;;
15706;SDS011;7953;54.302;10.128;2024-01-16T07:32:43;21.23;;;12.57;;
15706;SDS011;7953;54.302;10.128;2024-01-16T07:35:10;24.27;;;12.80;;
15706;SDS011;7953;54.302;10.128;2024-01-16T07:37:36;17.77;;;12.17;;
15706;SDS011;7953;54.302;10.128;2024-01-16T07:40:04;23.73;;;11.27;;
15706;SDS011;7953;54.302;10.128;2024-01-16T07:42:32;21.63;;;12.70;;
15706;SDS011;7953;54.302;10.128;2024-01-16T07:45:00;23.00;;;12.50;;
15706;SDS011;7953;54.302;10.128;2024-01-16T07:47:29;21.40;;;13.87;;
15706;SDS011;7953;54.302;10.128;2024-01-16T07:49:57;20.43;;;12.20;;
15706;SDS011;7953;54.302;10.128;2024-01-16T07:52:24;22.53;;;12.77;;
15706;SDS011;7953;54.302;10.128;2024-01-16T07:54:51;23.57;;;13.30;;
15706;SDS011;7953;54.302;10.128;2024-01-16T07:57:18;18.53;;;11.57;;
15706;SDS011;7953;54.302;10.128;2024-01-16T07:59:45;20.40;;;12.33;;
15706;SDS011;7953;54.302;10.128;2024-01-16T08:02:12;22.67;;;13.93;;
15706;SDS011;7953;54.302;10.128;2024-01-16T08:04:39;18.90;;;12.43;;
15706;SDS011;7953;54.302;10.128;2024-01-16T08:07:07;23.30;;;12.47;;
15706;SDS011;7953;54.302;10.128;2024-01-16T08:09:34;19.17;;;11.90;;
15706;SDS011;7953;54.302;10.128;2024-01-16T08:12:01;22.57;;;12.53;;
15706;SDS011;7953;54.302;10.128;2024-01-16T08:14:28;22.57;;;12.40;;
15706;SDS011;7953;54.302;10.128;2024-01-16T08:16:55;20.97;;;12.77;;
15706;SDS011;7953;54.302;10.128;2024-01-16T08:19:22;20.83;;;12.17;;
15706;SDS011;7953;54.302;10.128;2024-01-16T08:21:49;22.67;;;12.80;;
15706;SDS011;7953;54.302;10.128;2024-01-16T08:24:17;27.00;;;14.10;;
15706;SDS011;7953;54.302;10.128;2024-01-16T08:26:44;27.83;;;15.10;;
15706;SDS011;7953;54.302;10.128;2024-01-16T08:29:11;23.50;;;13.90;;
15706;SDS011;7953;54.302;10.128;2024-01-16T08:31:38;23.77;;;14.47;;
15706;SDS011;7953;54.302;10.128;2024-01-16T08:34:05;23.83;;;13.17;;
15706;SDS011;7953;54.302;10.128;2024-01-16T08:36:31;22.87;;;13.37;;
15706;SDS011;7953;54.302;10.128;2024-01-16T08:38:58;19.30;;;12.27;;
15706;SDS011;7953;54.302;10.128;2024-01-16T08:41:26;22.13;;;12.80;;
15706;SDS011;7953;54.302;10.128;2024-01-16T08:43:53;22.10;;;11.20;;
15706;SDS011;7953;54.302;10.128;2024-01-16T08:46:20;22.57;;;13.50;;
15706;SDS011;7953;54.302;10.128;2024-01-16T08:48:47;23.07;;;11.83;;
15706;SDS011;7953;54.302;10.128;2024-01-16T08:51:14;21.40;;;13.00;;
15706;SDS011;7953;54.302;10.128;2024-01-16T08:53:41;22.47;;;13.10;;
15706;SDS011;7953;54.302;10.128;2024-01-16T08:56:08;21.83;;;12.10;;
15706;SDS011;7953;54.302;10.128;2024-01-16T08:58:38;22.97;;;13.23;;
15706;SDS011;7953;54.302;10.128;2024-01-16T09:01:05;22.97;;;12.50;;
15706;SDS011;7953;54.302;10.128;2024-01-16T09:03:32;24.23;;;15.80;;
15706;SDS011;7953;54.302;10.128;2024-01-16T09:05:59;19.80;;;12.40;;
15706;SDS011;7953;54.302;10.128;2024-01-16T09:08:27;21.27;;;12.10;;
15706;SDS011;7953;54.302;10.128;2024-01-16T09:10:54;22.33;;;12.90;;
15706;SDS011;7953;54.302;10.128;2024-01-16T09:13:21;23.67;;;13.03;;
15706;SDS011;7953;54.302;10.128;2024-01-16T09:15:49;22.33;;;12.67;;
15706;SDS011;7953;54.302;10.128;2024-01-16T09:18:16;21.20;;;13.87;;
15706;SDS011;7953;54.302;10.128;2024-01-16T09:20:43;24.13;;;14.77;;
15706;SDS011;7953;54.302;10.128;2024-01-16T09:23:10;21.67;;;14.90;;
15706;SDS011;7953;54.302;10.128;2024-01-16T09:25:37;24.20;;;14.63;;
15706;SDS011;7953;54.302;10.128;2024-01-16T09:28:04;26.17;;;15.07;;
15706;SDS011;7953;54.302;10.128;2024-01-16T09:30:31;22.50;;;13.50;;
15706;SDS011;7953;54.302;10.128;2024-01-16T09:33:00;20.57;;;12.73;;
15706;SDS011;7953;54.302;10.128;2024-01-16T09:35:28;18.77;;;12.43;;
15706;SDS011;7953;54.302;10.128;2024-01-16T09:37:55;20.87;;;12.13;;
15706;SDS011;7953;54.302;10.128;2024-01-16T09:40:22;19.87;;;11.87;;
15706;SDS011;7953;54.302;10.128;2024-01-16T09:42:48;18.40;;;11.90;;
15706;SDS011;7953;54.302;10.128;2024-01-16T09:45:17;23.03;;;12.43;;
15706;SDS011;7953;54.302;10.128;2024-01-16T09:47:46;20.43;;;12.80;;
15706;SDS011;7953;54.302;10.128;2024-01-16T09:50:17;20.60;;;12.80;;
15706;SDS011;7953;54.302;10.128;2024-01-16T09:52:45;20.70;;;12.30;;
15706;SDS011;7953;54.302;10.128;2024-01-16T09:55:12;22.13;;;13.60;;
15706;SDS011;7953;54.302;10.128;2024-01-16T09:57:40;20.63;;;13.20;;
15706;SDS011;7953;54.302;10.128;2024-01-16T10:00:07;20.67;;;12.57;;
15706;SDS011;7953;54.302;10.128;2024-01-16T10:02:37;19.67;;;11.97;;
15706;SDS011;7953;54.302;10.128;2024-01-16T10:05:06;24.57;;;14.37;;
15706;SDS011;7953;54.302;10.128;2024-01-16T10:07:36;23.40;;;13.47;;
15706;SDS011;7953;54.302;10.128;2024-01-16T10:10:04;17.77;;;11.70;;
15706;SDS011;7953;54.302;10.128;2024-01-16T10:12:32;26.03;;;12.53;;
15706;SDS011;7953;54.302;10.128;2024-01-16T10:14:59;17.13;;;10.50;;
15706;SDS011;7953;54.302;10.128;2024-01-16T10:17:35;16.47;;;10.93;;
15706;SDS011;7953;54.302;10.128;2024-01-16T10:20:03;16.87;;;10.13;;
15706;SDS011;7953;54.302;10.128;2024-01-16T10:22:31;17.00;;;9.63;;
15706;SDS011;7953;54.302;10.128;2024-01-16T10:25:05;15.13;;;9.27;;
15706;SDS011;7953;54.302;10.128;2024-01-16T10:27:33;10.93;;;9.03;;
15706;SDS011;7953;54.302;10.128;2024-01-16T10:30:01;18.37;;;8.70;;
15706;SDS011;7953;54.302;10.128;2024-01-16T10:32:29;14.30;;;8.53;;
15706;SDS011;7953;54.302;10.128;2024-01-16T10:35:02;13.23;;;7.87;;
15706;SDS011;7953;54.302;10.128;2024-01-16T10:37:30;13.03;;;9.23;;
15706;SDS011;7953;54.302;10.128;2024-01-16T10:40:08;12.03;;;7.97;;
15706;SDS011;7953;54.302;10.128;2024-01-16T10:42:35;12.90;;;8.07;;
15706;SDS011;7953;54.302;10.128;2024-01-16T10:45:02;10.63;;;7.57;;
15706;SDS011;7953;54.302;10.128;2024-01-16T10:47:29;12.57;;;6.57;;
15706;SDS011;7953;54.302;10.128;2024-01-16T10:49:59;11.70;;;7.47;;
15706;SDS011;7953;54.302;10.128;2024-01-16T10:52:27;11.63;;;7.17;;
15706;SDS011;7953;54.302;10.128;2024-01-16T10:54:55;13.10;;;7.60;;
15706;SDS011;7953;54.302;10.128;2024-01-16T10:57:30;12.27;;;6.73;;
15706;SDS011;7953;54.302;10.128;2024-01-16T11:00:00;14.27;;;7.20;;
15706;SDS011;7953;54.302;10.128;2024-01-16T11:02:38;9.93;;;6.43;;
15706;SDS011;7953;54.302;10.128;2024-01-16T11:05:10;8.13;;;6.47;;
15706;SDS011;7953;54.302;10.128;2024-01-16T11:07:38;11.90;;;6.37;;
15706;SDS011;7953;54.302;10.128;2024-01-16T11:10:07;9.50;;;6.00;;
15706;SDS011;7953;54.302;10.128;2024-01-16T11:12:38;16.43;;;6.50;;
15706;SDS011;7953;54.302;10.128;2024-01-16T11:15:07;6.77;;;5.00;;
15706;SDS011;7953;54.302;10.128;2024-01-16T11:17:37;9.80;;;5.80;;
15706;SDS011;7953;54.302;10.128;2024-01-16T11:20:06;10.30;;;6.57;;
15706;SDS011;7953;54.302;10.128;2024-01-16T11:22:36;8.27;;;5.93;;
15706;SDS011;7953;54.302;10.128;2024-01-16T11:25:12;8.70;;;5.93;;
15706;SDS011;7953;54.302;10.128;2024-01-16T11:27:42;10.40;;;6.20;;
15706;SDS011;7953;54.302;10.128;2024-01-16T11:30:10;8.80;;;5.60;;
15706;SDS011;7953;54.302;10.128;2024-01-16T11:32:38;12.63;;;5.33;;
15706;SDS011;7953;54.302;10.128;2024-01-16T11:35:06;10.17;;;5.53;;
15706;SDS011;7953;54.302;10.128;2024-01-16T11:37:34;7.33;;;5.27;;
15706;SDS011;7953;54.302;10.128;2024-01-16T11:40:21;13.20;;;5.50;;
15706;SDS011;7953;54.302;10.128;2024-01-16T11:42:54;7.10;;;5.27;;
15706;SDS011;7953;54.302;10.128;2024-01-16T11:48:25;8.67;;;4.10;;
15706;SDS011;7953;54.302;10.128;2024-01-16T11:50:52;7.50;;;4.13;;
15706;SDS011;7953;54.302;10.128;2024-01-16T11:53:32;8.90;;;4.27;;
15706;SDS011;7953;54.302;10.128;2024-01-16T11:56:06;9.43;;;4.67;;
15706;SDS011;7953;54.302;10.128;2024-01-16T11:59:06;10.80;;;5.57;;
15706;SDS011;7953;54.302;10.128;2024-01-16T12:01:44;37.43;;;16.73;;
15706;SDS011;7953;54.302;10.128;2024-01-16T12:04:11;7.93;;;5.17;;
15706;SDS011;7953;54.302;10.128;2024-01-16T12:06:43;4.77;;;3.13;;
15706;SDS011;7953;54.302;10.128;2024-01-16T12:09:12;7.10;;;3.43;;
15706;SDS011;7953;54.302;10.128;2024-01-16T12:11:40;4.80;;;2.73;;
15706;SDS011;7953;54.302;10.128;2024-01-16T12:14:10;14.17;;;5.57;;
15706;SDS011;7953;54.302;10.128;2024-01-16T12:16:37;9.90;;;3.47;;
15706;SDS011;7953;54.302;10.128;2024-01-16T12:19:04;4.87;;;2.23;;
15706;SDS011;7953;54.302;10.128;2024-01-16T12:21:33;5.43;;;2.63;;
15706;SDS011;7953;54.302;10.128;2024-01-16T12:24:00;6.40;;;2.73;;
15706;SDS011;7953;54.302;10.128;2024-01-16T12:26:28;9.23;;;3.20;;
15706;SDS011;7953;54.302;10.128;2024-01-16T12:28:56;5.27;;;2.27;;
15706;SDS011;7953;54.302;10.128;2024-01-16T12:31:25;4.27;;;2.20;;
15706;SDS011;7953;54.302;10.128;2024-01-16T12:33:52;8.07;;;2.00;;
15706;SDS011;7953;54.302;10.128;2024-01-16T12:36:19;2.27;;;1.30;;
15706;SDS011;7953;54.302;10.128;2024-01-16T12:38:53;4.03;;;1.70;;
15706;SDS011;7953;54.302;10.128;2024-01-16T12:41:21;2.83;;;1.50;;
15706;SDS011;7953;54.302;10.128;2024-01-16T12:43:48;6.13;;;2.07;;
15706;SDS011;7953;54.302;10.128;2024-01-16T12:46:16;7.43;;;3.37;;
15706;SDS011;7953;54.302;10.128;2024-01-16T12:48:45;2.83;;;1.70;;
15706;SDS011;7953;54.302;10.128;2024-01-16T12:51:19;9.23;;;1.90;;
15706;SDS011;7953;54.302;10.128;2024-01-16T12:53:47;3.80;;;1.70;;
15706;SDS011;7953;54.302;10.128;2024-01-16T12:56:17;3.27;;;2.50;;
15706;SDS011;7953;54.302;10.128;2024-01-16T12:58:45;1.20;;;1.10;;
15706;SDS011;7953;54.302;10.128;2024-01-16T13:01:22;3.77;;;1.67;;
15706;SDS011;7953;54.302;10.128;2024-01-16T13:03:52;2.47;;;1.20;;
15706;SDS011;7953;54.302;10.128;2024-01-16T13:06:20;1.40;;;1.10;;
15706;SDS011;7953;54.302;10.128;2024-01-16T13:08:47;3.73;;;1.27;;
15706;SDS011;7953;54.302;10.128;2024-01-16T13:11:16;4.97;;;1.53;;
15706;SDS011;7953;54.302;10.128;2024-01-16T13:13:45;2.67;;;1.50;;
15706;SDS011;7953;54.302;10.128;2024-01-16T13:16:13;2.97;;;1.40;;
15706;SDS011;7953;54.302;10.128;2024-01-16T13:18:42;1.17;;;1.03;;
15706;SDS011;7953;54.302;10.128;2024-01-16T13:21:10;3.63;;;1.77;;
15706;SDS011;7953;54.302;10.128;2024-01-16T13:23:37;6.90;;;1.60;;
15706;SDS011;7953;54.302;10.128;2024-01-16T13:26:04;3.33;;;2.17;;
15706;SDS011;7953;54.302;10.128;2024-01-16T13:28:32;1.77;;;1.43;;
15706;SDS011;7953;54.302;10.128;2024-01-16T13:30:59;1.80;;;1.23;;
15706;SDS011;7953;54.302;10.128;2024-01-16T13:33:26;2.03;;;1.60;;
15706;SDS011;7953;54.302;10.128;2024-01-16T13:35:53;3.20;;;1.20;;
15706;SDS011;7953;54.302;10.128;2024-01-16T13:38:21;4.63;;;1.87;;
15706;SDS011;7953;54.302;10.128;2024-01-16T13:40:48;2.10;;;1.40;;
15706;SDS011;7953;54.302;10.128;2024-01-16T13:43:16;2.60;;;1.30;;
15706;SDS011;7953;54.302;10.128;2024-01-16T13:45:43;3.27;;;1.67;;
15706;SDS011;7953;54.302;10.128;2024-01-16T13:48:14;2.43;;;1.10;;
15706;SDS011;7953;54.302;10.128;2024-01-16T13:50:42;7.27;;;1.60;;
15706;SDS011;7953;54.302;10.128;2024-01-16T13:53:09;4.47;;;1.10;;
15706;SDS011;7953;54.302;10.128;2024-01-16T13:55:40;3.77;;;1.20;;
15706;SDS011;7953;54.302;10.128;2024-01-16T13:58:07;4.60;;;1.30;;
15706;SDS011;7953;54.302;10.128;2024-01-16T14:00:34;3.37;;;1.30;;
15706;SDS011;7953;54.302;10.128;2024-01-16T14:03:01;3.70;;;1.40;;
15706;SDS011;7953;54.302;10.128;2024-01-16T14:05:30;2.60;;;1.10;;
15706;SDS011;7953;54.302;10.128;2024-01-16T14:07:57;3.10;;;1.20;;
15706;SDS011;7953;54.302;10.128;2024-01-16T14:10:24;2.97;;;1.20;;
15706;SDS011;7953;54.302;10.128;2024-01-16T14:12:52;2.37;;;1.20;;
15706;SDS011;7953;54.302;10.128;2024-01-16T14:15:19;4.33;;;1.50;;
15706;SDS011;7953;54.302;10.128;2024-01-16T14:17:49;4.60;;;1.80;;
15706;SDS011;7953;54.302;10.128;2024-01-16T14:20:17;4.13;;;1.63;;
15706;SDS011;7953;54.302;10.128;2024-01-16T14:22:47;2.90;;;1.40;;
15706;SDS011;7953;54.302;10.128;2024-01-16T14:25:14;3.87;;;1.80;;
15706;SDS011;7953;54.302;10.128;2024-01-16T14:27:44;1.40;;;1.30;;
15706;SDS011;7953;54.302;10.128;2024-01-16T14:30:13;3.93;;;1.07;;
15706;SDS011;7953;54.302;10.128;2024-01-16T14:32:42;2.73;;;1.27;;
15706;SDS011;7953;54.302;10.128;2024-01-16T14:35:10;3.73;;;1.63;;
15706;SDS011;7953;54.302;10.128;2024-01-16T14:37:42;1.93;;;1.37;;
15706;SDS011;7953;54.302;10.128;2024-01-16T14:40:09;3.43;;;1.37;;